KHYA/HYA METAR and TAF weather

Enter ICAO airport designator
Station Type Date Time Source
KHYA METAR 2019/10/15 20:56 UTC NOAA

KHYA 152056Z 02004KT 10SM CLR 14/03 A3007 RMK AO2 SLP182 T01440028 56010


Station Type Date Time Source
KHYA Decoded METAR 2019/10/15 20:56 UTC NOAA

HYANNIS BARNSTABLE BOARDMN, MA, United States (KHYA) 41-40N 070-16W 22M
Oct 15, 2019 - 04:56 PM EDT / 2019.10.15 2056 UTC
Wind: from the NNE (020 degrees) at 5 MPH (4 KT):0
Visibility: 10 mile(s):0
Sky conditions: clear
Temperature: 57.9 F (14.4 C)
Dew Point: 37.0 F (2.8 C)
Relative Humidity: 45%
Pressure (altimeter): 30.07 in. Hg (1018 hPa)
Pressure tendency: 0.03 inches (1.0 hPa) lower than three hours ago
ob: KHYA 152056Z 02004KT 10SM CLR 14/03 A3007 RMK AO2 SLP182 T01440028 56010
cycle: 21

Station Type Date Time Source
KHYA TAF 2019/10/15 20:30 UTC NOAA

TAF
AMD KHYA 152028Z 1520/1618 02008KT P6SM SKC
FM152200 06003KT P6SM SKC
FM152300 12003KT P6SM SKC
FM160100 16004KT P6SM SKC
FM161700 14011G18KT P6SM SCT250

Example: see airport list